WetterOnline ( http://www.wetteronline.de )

Wetter aktuell Rheinstetten

Aktuelles Wetter: Rheinstetten (116m)

6-stündlich | Neueste Meldungen
Ortszeit Temperatur Wetter
Mi, 24.10. 2:00 12.9° C bewölkt
Di, 23.10. 20:00 14.3° C bedeckt
Di, 23.10. 14:00 12.9° C bewölkt
Di, 23.10. 8:00 2.8° C wolkig
Di, 23.10. 2:00 8.4° C wolkenlos
Mo, 22.10. 20:00 12.8° C bedeckt
Mo, 22.10. 14:00 15.4° C fast wolkenlos
Mo, 22.10. 8:00 4.4° C wolkenlos
Ortszeit Temperatur Wetter
Mi, 24.10. 4:00 12.2° C bedeckt
Mi, 24.10. 3:50 12.2° C bedeckt
Mi, 24.10. 3:40 12.2° C bedeckt
Mi, 24.10. 3:30 12.2° C bedeckt
Mi, 24.10. 3:20 12.2° C bedeckt
Mi, 24.10. 3:10 12.3° C bedeckt
Mi, 24.10. 3:00 12.4° C bedeckt
Mi, 24.10. 2:30 12.7° C bedeckt
Mi, 24.10. 2:00 12.9° C bewölkt
Mi, 24.10. 1:30 12.8° C wolkig
Mi, 24.10. 1:00 13.2° C wolkig
Ortszeit Relative Feuchte Sichtweite
Mi, 24.10. 2:00 59% 40 km
Di, 23.10. 20:00 50% 40 km
Di, 23.10. 14:00 55% 20 km
Di, 23.10. 8:00 99% 6 km
Di, 23.10. 2:00 82% 45 km
Mo, 22.10. 20:00 74% 21 km
Mo, 22.10. 14:00 44% 35 km
Mo, 22.10. 8:00 82% 35 km
Ortszeit Relative Feuchte Sichtweite
Mi, 24.10. 4:00 64% 40 km
Mi, 24.10. 3:50 64% -
Mi, 24.10. 3:40 64% -
Mi, 24.10. 3:30 62% 40 km
Mi, 24.10. 3:20 62% -
Mi, 24.10. 3:10 61% -
Mi, 24.10. 3:00 61% 40 km
Mi, 24.10. 2:30 60% 40 km
Mi, 24.10. 2:00 59% 40 km
Mi, 24.10. 1:30 59% 40 km
Mi, 24.10. 1:00 57% 35 km
Ortszeit Niederschlagsmenge Niederschlagsart
Mi, 24.10. 2:00 0.0 l/m2 in 6 Std. -
Di, 23.10. 20:00 0.1 l/m2 in 12 Std. Regen
Di, 23.10. 14:00 0.0 l/m2 in 6 Std. -
Di, 23.10. 8:00 0.1 l/m2 in 12 Std. -
Di, 23.10. 2:00 0.1 l/m2 in 6 Std. Sprühregen
Mo, 22.10. 20:00 0.1 l/m2 in 12 Std. Sprühregen
Mo, 22.10. 14:00 0.0 l/m2 in 6 Std. -
Mo, 22.10. 8:00 0.0 l/m2 in 12 Std. -
Ortszeit Niederschlagsmenge Niederschlagsart
Mi, 24.10. 4:00 0.0 l/m2 in 1 Std. -
Mi, 24.10. 3:50 keine Meldung -
Mi, 24.10. 3:40 keine Meldung -
Mi, 24.10. 3:30 0.0 l/m2 in 1 Std. -
Mi, 24.10. 3:20 keine Meldung -
Mi, 24.10. 3:10 keine Meldung -
Mi, 24.10. 3:00 0.0 l/m2 in 1 Std. -
Mi, 24.10. 2:30 0.0 l/m2 in 1 Std. -
Mi, 24.10. 2:00 0.0 l/m2 in 1 Std. -
Mi, 24.10. 1:30 0.0 l/m2 in 1 Std. -
Mi, 24.10. 1:00 0.0 l/m2 in 1 Std. -
Ortszeit Stärke Spitze Richtung
km/h Bft. km/h Grad Sektor
Mi, 24.10. 2:00 29 5 47 240° SW
Di, 23.10. 20:00 24 4 50 240° SW
Di, 23.10. 14:00 33 5 48 240° SW
Di, 23.10. 8:00 4 1 7 210° SW
Di, 23.10. 2:00 0 0 36 - -
Mo, 22.10. 20:00 25 4 36 10° N
Mo, 22.10. 14:00 14 3 25 10° N
Mo, 22.10. 8:00 13 3 19 40° NO
Ortszeit Stärke Spitze Richtung
km/h Bft. km/h Grad Sektor
Mi, 24.10. 4:00 30 5 43 230° SW
Mi, 24.10. 3:50 30 5 - 230° SW
Mi, 24.10. 3:40 28 4 - 230° SW
Mi, 24.10. 3:30 24 4 43 240° SW
Mi, 24.10. 3:20 24 4 - 240° SW
Mi, 24.10. 3:10 29 5 - 240° SW
Mi, 24.10. 3:00 28 4 48 260° W
Mi, 24.10. 2:30 30 5 48 250° W
Mi, 24.10. 2:00 29 5 47 240° SW
Mi, 24.10. 1:30 32 5 47 240° SW
Mi, 24.10. 1:00 29 5 47 240° SW
Ortszeit Untergrenze Bedeckung Gattung
total tief tief mittel hoch
Mi, 24.10. 2:00 1290 m 7/8 7/8 - - -
Di, 23.10. 20:00 2100 m 8/8 8/8 - - -
Di, 23.10. 14:00 3600 m 7/8 7/8 - - -
Di, 23.10. 8:00 7800 m 8/8 0/8 - - -
Di, 23.10. 2:00 - 0/8 0/8 - - -
Mo, 22.10. 20:00 870 m 8/8 8/8 - - -
Mo, 22.10. 14:00 1410 m 1/8 1/8 - - -
Mo, 22.10. 8:00 - 0/8 0/8 - - -
Ortszeit Bedeckungsgrad in Achtel und Wolkenuntergrenze
Mi, 24.10. 4:00 8(660m)
Mi, 24.10. 3:50 8(660m)
Mi, 24.10. 3:40 8(690m)
Mi, 24.10. 3:30 8(750m)
Mi, 24.10. 3:20 8(750m)
Mi, 24.10. 3:10 7(780m) 8(990m)
Mi, 24.10. 3:00 8(990m) 8(990m)
Mi, 24.10. 2:30 8(1230m) 8(1290m)
Mi, 24.10. 2:00 7(1290m) 7(3000m)
Mi, 24.10. 1:30 1(1080m) 7(3300m) 7(3300m)
Mi, 24.10. 1:00 6(1500m) 6(1500m)
Ortszeit Luftdruck NN (hPa) Tendenz (hPa in 3 Std.)
Mi, 24.10. 2:00 1025 - 1,4
Di, 23.10. 20:00 1025 + 0,4
Di, 23.10. 14:00 1028 - 2,2
Di, 23.10. 8:00 1030 - 1,9
Di, 23.10. 2:00 1032 - 0,5
Mo, 22.10. 20:00 1032 + 2,6
Mo, 22.10. 14:00 1029 + 0,1
Mo, 22.10. 8:00 1028 + 1,1
Ortszeit Luftdruck NN (hPa) Tendenz (hPa in 3 Std.)
Mi, 24.10. 4:00 1025 - 0,8
Mi, 24.10. 3:50 1025 keine Meldung
Mi, 24.10. 3:40 1025 keine Meldung
Mi, 24.10. 3:30 1026 - 0,1
Mi, 24.10. 3:20 1026 keine Meldung
Mi, 24.10. 3:10 1026 keine Meldung
Mi, 24.10. 3:00 1026 - 0,3
Mi, 24.10. 2:30 1026 - 0,9
Mi, 24.10. 2:00 1025 - 1,4
Mi, 24.10. 1:30 1025 - 1,1
Mi, 24.10. 1:00 1026 - 0,8
Ortszeit Schneehöhe (cm)
Mi, 24.10. 2:00 0
Di, 23.10. 20:00 0
Di, 23.10. 14:00 0
Di, 23.10. 8:00 0
Di, 23.10. 2:00 0
Mo, 22.10. 20:00 0
Mo, 22.10. 14:00 0
Mo, 22.10. 8:00 0
Ortszeit Schneehöhe (cm)
Mi, 24.10. 4:00 0
Mi, 24.10. 3:50 0
Mi, 24.10. 3:40 0
Mi, 24.10. 3:30 0
Mi, 24.10. 3:20 0
Mi, 24.10. 3:10 0
Mi, 24.10. 3:00 0
Mi, 24.10. 2:30 0
Mi, 24.10. 2:00 0
Mi, 24.10. 1:30 0
Mi, 24.10. 1:00 0
Link zu dieser Seite / Seite empfehlen

Das Wetter in ...